Time;durP1;ratioP1;P1;durP2;ratioP2;P2;SDS_P1;SDS_P2;PMS_P1;PMS_P2;Temp;Humidity;BMP_temperature;BMP_pressure;BME280_temperature;BME280_humidity;BME280_pressure;Samples;Min_cycle;Max_cycle;Signal;HPM_P1;HPM_P2
2023/03/03 00:01:20;;;;;;;0.40;0.30;;;;;;;10.07;100.00;95080.09;5112161;28;20428;-57
2023/03/03 00:03:50;;;;;;;0.50;0.50;;;;;;;11.23;100.00;95261.66;5111882;28;20522;-57
2023/03/03 00:06:18;;;;;;;1.20;1.13;;;;;;;11.20;100.00;95256.91;5112100;28;20588;-58
2023/03/03 00:08:47;;;;;;;0.40;0.30;;;;;;;10.26;100.00;95162.44;5111897;28;20495;-58
2023/03/03 00:11:15;;;;;;;0.30;0.20;;;;;;;10.99;100.00;95258.06;5111834;28;20424;-57
2023/03/03 00:13:48;;;;;;;0.40;0.40;;;;;;;9.93;100.00;95065.88;5111924;28;20480;-57
2023/03/03 00:16:22;;;;;;;0.60;0.60;;;;;;;10.87;100.00;95205.38;5111858;28;20495;-57
2023/03/03 00:18:52;;;;;;;1.23;0.20;;;;;;;10.66;100.00;95180.81;5112132;28;20761;-57
2023/03/03 00:21:31;;;;;;;1.17;1.00;;;;;;;11.18;100.00;95248.44;5111633;28;20467;-57
2023/03/03 00:24:18;;;;;;;0.30;0.30;;;;;;;11.23;100.00;95241.22;5111699;28;20432;-57
2023/03/03 00:26:48;;;;;;;2.93;2.67;;;;;;;10.89;100.00;95200.56;5112111;28;20807;-57
2023/03/03 00:29:29;;;;;;;0.80;0.40;;;;;;;10.67;100.00;95160.41;5112003;28;20895;-57
2023/03/03 00:32:20;;;;;;;0.57;0.57;;;;;;;10.60;100.00;95141.38;5112047;28;20454;-57
2023/03/03 00:34:50;;;;;;;1.50;1.50;;;;;;;11.01;100.00;95227.53;5111372;28;20428;-57
2023/03/03 00:37:25;;;;;;;0.50;0.30;;;;;;;11.10;100.00;95257.75;5111518;28;20425;-57
2023/03/03 00:39:59;;;;;;;8.10;0.40;;;;;;;11.22;100.00;95244.94;5111295;28;20513;-58
2023/03/03 00:42:27;;;;;;;0.50;0.50;;;;;;;10.75;100.00;95213.63;5111671;28;20503;-57
2023/03/03 00:44:59;;;;;;;0.30;0.30;;;;;;;10.37;100.00;95147.28;5111846;28;20424;-57
2023/03/03 00:47:31;;;;;;;3.43;0.50;;;;;;;10.63;100.00;95188.50;5110773;28;20431;-58
2023/03/03 00:50:27;;;;;;;0.40;0.30;;;;;;;10.22;100.00;95157.94;5111488;28;20475;-57
2023/03/03 00:53:04;;;;;;;0.40;0.30;;;;;;;10.46;100.00;95211.91;5111371;28;20436;-57
2023/03/03 00:55:34;;;;;;;0.50;0.50;;;;;;;10.44;100.00;95211.38;5111364;28;20498;-58
2023/03/03 00:58:03;;;;;;;1.00;1.00;;;;;;;10.78;100.00;95220.22;5111582;28;20984;-58
2023/03/03 01:00:31;;;;;;;0.60;0.60;;;;;;;10.63;100.00;95191.16;5111600;28;20431;-57
2023/03/03 01:03:04;;;;;;;0.50;0.40;;;;;;;10.30;100.00;95131.69;5111402;28;20467;-58
2023/03/03 01:05:35;;;;;;;0.40;0.40;;;;;;;11.07;100.00;95209.75;5111403;28;20430;-58
2023/03/03 01:08:04;;;;;;;3.10;1.03;;;;;;;11.00;100.00;95188.84;5111698;28;20426;-57
2023/03/03 01:10:36;;;;;;;0.40;0.30;;;;;;;10.63;100.00;95119.59;5111389;28;20495;-57
2023/03/03 01:13:06;;;;;;;2.83;2.63;;;;;;;11.11;100.00;95184.25;5111256;28;20753;-57
2023/03/03 01:15:34;;;;;;;0.40;0.33;;;;;;;11.23;100.00;95204.06;5111296;28;20464;-57
2023/03/03 01:18:02;;;;;;;0.50;0.50;;;;;;;11.21;100.00;95206.22;5111236;28;20483;-57
2023/03/03 01:20:31;;;;;;;0.77;0.77;;;;;;;11.11;100.00;95182.41;5110628;28;20649;-57
2023/03/03 01:23:01;;;;;;;0.40;0.30;;;;;;;11.18;100.00;95190.84;5111839;28;20442;-58
2023/03/03 01:25:29;;;;;;;0.57;0.57;;;;;;;11.08;100.00;95169.69;5114056;28;20441;-58
2023/03/03 01:27:58;;;;;;;0.70;0.70;;;;;;;11.30;100.00;95187.84;5114484;28;20424;-58
2023/03/03 01:30:27;;;;;;;4.40;1.33;;;;;;;11.07;100.00;95146.09;5114702;28;20469;-57
2023/03/03 01:32:55;;;;;;;1.07;0.53;;;;;;;11.14;100.00;95184.50;5114016;28;20518;-58
2023/03/03 01:35:23;;;;;;;3.33;0.63;;;;;;;11.10;100.00;95172.06;5114731;28;20428;-58
2023/03/03 01:37:52;;;;;;;0.90;0.60;;;;;;;11.27;100.00;95183.91;5114751;28;20477;-57
2023/03/03 01:40:25;;;;;;;0.53;0.50;;;;;;;11.08;100.00;95184.81;5114868;28;20424;-57
2023/03/03 01:42:53;;;;;;;1.03;1.03;;;;;;;10.65;100.00;95183.75;5114659;28;20435;-57
2023/03/03 01:45:24;;;;;;;1.03;0.50;;;;;;;10.32;100.00;95187.84;5114471;28;20455;-57
2023/03/03 01:47:57;;;;;;;1.43;0.50;;;;;;;9.86;100.00;95179.19;5114631;28;20519;-57
2023/03/03 01:50:35;;;;;;;2.10;1.40;;;;;;;9.49;100.00;95202.50;5114237;28;20510;-58
2023/03/03 01:53:06;;;;;;;0.87;0.87;;;;;;;9.31;100.00;95184.53;5114447;28;20420;-58
2023/03/03 01:55:39;;;;;;;7.20;0.93;;;;;;;9.13;100.00;95179.75;5114657;28;20467;-58
2023/03/03 01:58:11;;;;;;;0.50;0.50;;;;;;;9.51;100.00;95197.75;5114280;28;20988;-58
2023/03/03 02:00:46;;;;;;;1.03;1.03;;;;;;;9.47;100.00;95199.31;5114424;28;20438;-58
2023/03/03 02:03:14;;;;;;;0.70;0.70;;;;;;;9.16;100.00;95164.13;5114101;28;20526;-58
2023/03/03 02:05:44;;;;;;;0.40;0.30;;;;;;;9.82;100.00;95201.94;5114566;28;20424;-58
2023/03/03 02:08:16;;;;;;;0.83;0.83;;;;;;;9.95;100.00;95174.94;5114100;28;20424;-58
2023/03/03 02:10:47;;;;;;;0.60;0.60;;;;;;;9.71;100.00;95191.66;5113112;28;20473;-58
2023/03/03 02:13:16;;;;;;;0.40;0.33;;;;;;;9.81;100.00;95184.50;5114304;28;20420;-58
2023/03/03 02:15:44;;;;;;;0.47;0.40;;;;;;;9.91;100.00;95195.06;5113849;28;20463;-58
2023/03/03 02:18:15;;;;;;;0.70;0.70;;;;;;;8.94;100.00;95098.31;5113873;28;20503;-58
2023/03/03 02:20:54;;;;;;;1.00;1.00;;;;;;;9.23;100.00;95129.50;5113788;28;20468;-58
2023/03/03 02:23:27;;;;;;;5.50;0.63;;;;;;;9.21;100.00;95140.34;5113723;28;20422;-58
2023/03/03 02:26:09;;;;;;;3.17;1.13;;;;;;;9.92;100.00;95191.34;5114048;28;20430;-58
2023/03/03 02:28:39;;;;;;;0.40;0.40;;;;;;;10.31;100.00;95188.09;5113950;28;20923;-58
2023/03/03 02:31:12;;;;;;;0.73;0.50;;;;;;;9.98;100.00;95110.06;5113959;28;20558;-58
2023/03/03 02:33:41;;;;;;;0.40;0.40;;;;;;;10.63;100.00;95193.81;5113108;28;20429;-58
2023/03/03 02:36:13;;;;;;;0.30;0.20;;;;;;;10.44;100.00;95129.25;5113257;28;20514;-58
2023/03/03 02:38:48;;;;;;;0.30;0.20;;;;;;;10.73;100.00;95156.63;5113546;28;20942;-58
2023/03/03 02:41:29;;;;;;;0.40;0.30;;;;;;;10.57;100.00;95198.34;5113483;28;20422;-58
2023/03/03 02:44:00;;;;;;;0.50;0.43;;;;;;;9.94;100.00;95175.22;5112571;28;20460;-58
2023/03/03 02:46:33;;;;;;;1.37;1.30;;;;;;;9.51;100.00;95187.19;5113724;28;20550;-58
2023/03/03 02:49:02;;;;;;;0.73;0.50;;;;;;;9.48;100.00;95188.50;5113228;28;20478;-58
2023/03/03 02:51:30;;;;;;;0.40;0.30;;;;;;;9.61;100.00;95181.88;5113272;28;20472;-58
2023/03/03 02:53:58;;;;;;;0.30;0.20;;;;;;;9.69;100.00;95207.78;5113534;28;20442;-58
2023/03/03 02:56:29;;;;;;;2.80;0.50;;;;;;;9.90;100.00;95204.06;5112649;28;20436;-58
2023/03/03 02:58:57;;;;;;;0.40;0.30;;;;;;;9.36;100.00;95121.81;5112310;28;20430;-58
2023/03/03 03:01:25;;;;;;;1.07;1.07;;;;;;;10.25;100.00;95207.72;5113299;28;20446;-58
2023/03/03 03:03:53;;;;;;;1.57;0.67;;;;;;;10.12;100.00;95204.56;5112968;28;20435;-58
2023/03/03 03:06:22;;;;;;;0.50;0.50;;;;;;;10.20;100.00;95201.38;5112939;28;20928;-58
2023/03/03 03:08:50;;;;;;;0.43;0.40;;;;;;;9.72;100.00;95156.97;5113189;28;20423;-58
2023/03/03 03:11:18;;;;;;;0.30;0.30;;;;;;;9.52;100.00;95139.28;5112845;28;20471;-58
2023/03/03 03:13:48;;;;;;;0.60;0.60;;;;;;;9.92;100.00;95172.00;5112799;28;20435;-57
2023/03/03 03:16:16;;;;;;;0.50;0.30;;;;;;;10.22;100.00;95203.75;5112772;28;20931;-58
2023/03/03 03:18:46;;;;;;;0.73;0.73;;;;;;;10.25;100.00;95205.06;5113007;28;20431;-58
2023/03/03 03:21:14;;;;;;;0.30;0.30;;;;;;;9.64;100.00;95194.56;5112375;28;20482;-58
2023/03/03 03:23:42;;;;;;;0.83;0.83;;;;;;;9.59;100.00;95199.84;5112628;28;20510;-58
2023/03/03 03:26:11;;;;;;;0.40;0.40;;;;;;;9.50;100.00;95207.53;5112537;28;20983;-58
2023/03/03 03:28:40;;;;;;;0.40;0.30;;;;;;;9.65;100.00;95201.44;5112866;28;20427;-58
2023/03/03 03:31:10;;;;;;;1.17;1.07;;;;;;;9.41;100.00;95209.09;5112481;28;20466;-58
2023/03/03 03:33:38;;;;;;;0.83;0.60;;;;;;;9.39;100.00;95208.59;5112774;28;20439;-57
2023/03/03 03:36:07;;;;;;;0.97;0.70;;;;;;;9.29;100.00;95213.06;5112817;28;20428;-57
2023/03/03 03:38:36;;;;;;;3.17;1.23;;;;;;;9.19;100.00;95215.69;5112132;28;20459;-58
2023/03/03 03:41:06;;;;;;;0.83;0.83;;;;;;;8.98;100.00;95206.16;5112358;28;20789;-57
2023/03/03 03:43:35;;;;;;;1.00;1.00;;;;;;;8.51;100.00;95207.06;5112589;28;20463;-58
2023/03/03 03:46:03;;;;;;;0.83;0.80;;;;;;;8.49;100.00;95211.81;5112247;28;20503;-58
2023/03/03 03:48:33;;;;;;;0.87;0.87;;;;;;;8.49;100.00;95211.81;5112461;28;20435;-57
2023/03/03 03:51:01;;;;;;;0.73;0.73;;;;;;;8.34;100.00;95206.47;5111904;28;20467;-57
2023/03/03 03:53:30;;;;;;;1.30;1.30;;;;;;;8.34;100.00;95219.69;5111557;28;20429;-57
2023/03/03 03:55:58;;;;;;;2.40;1.63;;;;;;;8.52;100.00;95210.50;5112100;28;20424;-57
2023/03/03 03:58:26;;;;;;;0.73;0.73;;;;;;;8.32;100.00;95216.50;5111931;28;20514;-57
2023/03/03 04:00:55;;;;;;;0.60;0.53;;;;;;;8.26;100.00;95212.22;5112071;28;20883;-57
2023/03/03 04:03:23;;;;;;;1.40;1.17;;;;;;;8.07;100.00;95213.72;5111561;28;20424;-57
2023/03/03 04:05:54;;;;;;;1.00;0.97;;;;;;;8.23;100.00;95223.28;5112222;28;20927;-57
2023/03/03 04:08:22;;;;;;;1.80;0.83;;;;;;;8.23;100.00;95221.44;5111924;28;20431;-57
2023/03/03 04:10:51;;;;;;;1.00;0.60;;;;;;;8.22;100.00;95216.44;5112061;28;20466;-57
2023/03/03 04:13:19;;;;;;;1.33;0.90;;;;;;;8.17;100.00;95217.19;5111756;28;20969;-58
2023/03/03 04:15:47;;;;;;;1.63;1.30;;;;;;;8.03;100.00;95220.53;5111192;28;20772;-58
2023/03/03 04:18:15;;;;;;;1.47;1.40;;;;;;;8.22;100.00;95222.47;5111769;28;20434;-58
2023/03/03 04:20:44;;;;;;;0.57;0.53;;;;;;;8.31;100.00;95217.56;5111724;28;20572;-58
2023/03/03 04:23:13;;;;;;;1.13;1.13;;;;;;;8.11;100.00;95214.78;5111742;28;20440;-58
2023/03/03 04:25:41;;;;;;;0.57;0.57;;;;;;;8.07;100.00;95213.72;5111785;28;20933;-58
2023/03/03 04:28:10;;;;;;;0.60;0.60;;;;;;;8.32;100.00;95219.91;5111535;28;20425;-58
2023/03/03 04:30:38;;;;;;;14.97;3.63;;;;;;;8.37;100.00;95223.66;5111171;28;20501;-58
2023/03/03 04:33:06;;;;;;;0.93;0.50;;;;;;;8.14;100.00;95220.34;5111569;28;20518;-58
2023/03/03 04:35:35;;;;;;;1.17;0.40;;;;;;;8.36;100.00;95214.13;5111742;28;20446;-58
2023/03/03 04:38:03;;;;;;;0.60;0.60;;;;;;;8.69;100.00;95227.75;5111717;28;20435;-58
2023/03/03 04:40:33;;;;;;;0.53;0.53;;;;;;;8.54;100.00;95195.19;5111584;28;20826;-57
2023/03/03 04:43:01;;;;;;;0.40;0.33;;;;;;;8.91;100.00;95225.69;5111627;28;20797;-57
2023/03/03 04:45:30;;;;;;;0.77;0.77;;;;;;;9.23;100.00;95220.22;5111677;28;20418;-57
2023/03/03 04:47:58;;;;;;;0.47;0.47;;;;;;;9.08;100.00;95228.13;5111001;28;20458;-57
2023/03/03 04:50:27;;;;;;;0.40;0.30;;;;;;;8.89;100.00;95209.31;5111320;28;20455;-60
2023/03/03 04:52:56;;;;;;;0.40;0.40;;;;;;;9.08;100.00;95224.69;5111402;28;20523;-58
2023/03/03 04:55:24;;;;;;;0.73;0.40;;;;;;;9.20;100.00;95230.53;5111788;28;20810;-58
2023/03/03 04:57:54;;;;;;;0.70;0.50;;;;;;;9.17;100.00;95215.16;5112539;28;20444;-60
2023/03/03 05:00:22;;;;;;;0.50;0.40;;;;;;;9.38;100.00;95222.09;5115419;28;20494;-60
2023/03/03 05:02:50;;;;;;;0.50;0.40;;;;;;;9.19;100.00;95228.91;5114950;28;20430;-58
2023/03/03 05:05:19;;;;;;;0.30;0.30;;;;;;;8.88;100.00;95226.22;5114903;28;20520;-59
2023/03/03 05:07:47;;;;;;;2.40;1.53;;;;;;;8.72;100.00;95232.53;5115106;28;20431;-60
2023/03/03 05:10:15;;;;;;;0.43;0.43;;;;;;;8.56;100.00;95232.69;5115395;28;20522;-59
2023/03/03 05:12:44;;;;;;;0.83;0.83;;;;;;;8.60;100.00;95228.50;5114595;28;20463;-59
2023/03/03 05:15:13;;;;;;;0.80;0.40;;;;;;;8.81;100.00;95233.59;5114893;28;20940;-59
2023/03/03 05:17:42;;;;;;;0.30;0.20;;;;;;;8.63;100.00;95196.28;5114950;28;20426;-59
2023/03/03 05:20:12;;;;;;;0.40;0.40;;;;;;;8.83;100.00;95226.19;5114712;28;20463;-59
2023/03/03 05:22:40;;;;;;;0.40;0.40;;;;;;;9.02;100.00;95236.28;5115395;28;20459;-59
2023/03/03 05:25:11;;;;;;;1.07;0.97;;;;;;;9.06;100.00;95205.66;5114866;28;20420;-59
2023/03/03 05:27:39;;;;;;;1.43;1.07;;;;;;;9.21;100.00;95234.75;5114495;28;20849;-60
2023/03/03 05:30:09;;;;;;;7.30;0.60;;;;;;;8.66;100.00;95238.03;5114804;28;20432;-60
2023/03/03 05:32:39;;;;;;;0.80;0.80;;;;;;;8.73;100.00;95247.31;5114483;28;20504;-60
2023/03/03 05:35:08;;;;;;;0.60;0.50;;;;;;;8.77;100.00;95237.03;5114702;28;20427;-59
2023/03/03 05:37:36;;;;;;;0.40;0.30;;;;;;;8.61;100.00;95240.66;5114591;28;20957;-59
2023/03/03 05:40:05;;;;;;;0.93;0.40;;;;;;;8.97;100.00;95238.94;5114307;28;20519;-60
2023/03/03 05:42:33;;;;;;;0.70;0.70;;;;;;;9.04;100.00;95244.75;5114818;28;20918;-60
2023/03/03 05:45:02;;;;;;;0.37;0.30;;;;;;;9.25;100.00;95241.91;5114410;28;20437;-59
2023/03/03 05:47:30;;;;;;;0.73;0.60;;;;;;;8.94;100.00;95242.88;5114441;28;20426;-59
2023/03/03 05:50:00;;;;;;;3.63;0.70;;;;;;;8.78;100.00;95244.69;5114307;28;20815;-59
2023/03/03 05:52:28;;;;;;;0.80;0.50;;;;;;;9.06;100.00;95246.06;5113931;28;20465;-59
2023/03/03 05:54:57;;;;;;;0.40;0.40;;;;;;;9.34;100.00;95244.81;5114152;28;20443;-58
2023/03/03 05:57:25;;;;;;;0.60;0.60;;;;;;;9.21;100.00;95235.53;5114194;28;20421;-60
2023/03/03 05:59:54;;;;;;;0.40;0.40;;;;;;;8.90;100.00;95247.88;5114306;28;20771;-59
2023/03/03 06:02:22;;;;;;;0.50;0.50;;;;;;;9.12;100.00;95242.41;5114324;28;20421;-60
2023/03/03 06:04:50;;;;;;;0.40;0.40;;;;;;;9.20;100.00;95252.47;5114030;28;20453;-59
2023/03/03 06:07:20;;;;;;;0.67;0.67;;;;;;;9.32;100.00;95257.50;5114160;28;20457;-59
2023/03/03 06:09:48;;;;;;;0.60;0.60;;;;;;;9.14;100.00;95258.78;5114009;28;20437;-60
2023/03/03 06:12:17;;;;;;;2.33;2.23;;;;;;;9.22;100.00;95229.19;5114205;28;20883;-60
2023/03/03 06:14:45;;;;;;;0.30;0.30;;;;;;;9.18;100.00;95269.66;5114022;28;20429;-60
2023/03/03 06:17:13;;;;;;;0.40;0.30;;;;;;;9.22;100.00;95231.84;5113899;28;20958;-60
2023/03/03 06:19:41;;;;;;;0.50;0.50;;;;;;;8.83;100.00;95268.47;5113548;28;20531;-59
2023/03/03 06:22:10;;;;;;;1.40;1.30;;;;;;;8.76;100.00;95244.16;5113538;28;20466;-59
2023/03/03 06:24:39;;;;;;;0.37;0.30;;;;;;;9.05;100.00;95263.00;5113551;28;20478;-61
2023/03/03 06:27:09;;;;;;;0.40;0.30;;;;;;;8.89;100.00;95211.94;5113483;28;21082;-60
2023/03/03 06:29:37;;;;;;;1.40;1.10;;;;;;;9.37;100.00;95276.03;5113614;28;20522;-60
2023/03/03 06:32:06;;;;;;;2.00;0.57;;;;;;;9.32;100.00;95276.00;5113643;28;20494;-60
2023/03/03 06:34:35;;;;;;;0.53;0.50;;;;;;;8.57;100.00;95192.84;5113386;28;20464;-60
2023/03/03 06:37:03;;;;;;;0.50;0.50;;;;;;;9.27;100.00;95290.03;5113674;28;20941;-60
2023/03/03 06:39:34;;;;;;;1.53;1.43;;;;;;;8.85;100.00;95270.88;5112692;28;20477;-60
2023/03/03 06:42:05;;;;;;;2.30;0.73;;;;;;;8.43;100.00;95236.63;5113075;28;20434;-60
2023/03/03 06:44:33;;;;;;;1.00;0.90;;;;;;;8.61;100.00;95289.00;5113601;28;20432;-60
2023/03/03 06:47:01;;;;;;;0.47;0.47;;;;;;;8.05;100.00;95189.41;5113247;28;20419;-60
2023/03/03 06:49:30;;;;;;;0.50;0.40;;;;;;;8.96;100.00;95293.63;5113630;28;20488;-60
2023/03/03 06:52:01;;;;;;;0.50;0.50;;;;;;;8.86;100.00;95290.94;5112556;28;20480;-60
2023/03/03 06:54:30;;;;;;;0.53;0.53;;;;;;;8.87;100.00;95247.63;5112782;28;20510;-60
2023/03/03 06:57:01;;;;;;;2.83;0.50;;;;;;;9.20;100.00;95288.69;5112579;28;20521;-59
2023/03/03 06:59:30;;;;;;;1.60;1.50;;;;;;;9.00;100.00;95294.72;5112844;28;20441;-60
2023/03/03 07:01:59;;;;;;;0.40;0.40;;;;;;;8.94;100.00;95288.63;5112628;28;20440;-60
2023/03/03 07:04:29;;;;;;;3.50;3.40;;;;;;;8.67;100.00;95298.56;5112624;28;20440;-60
2023/03/03 07:07:00;;;;;;;0.87;0.87;;;;;;;8.57;100.00;95271.28;5113080;28;20427;-60
2023/03/03 07:09:29;;;;;;;0.73;0.57;;;;;;;8.85;100.00;95295.44;5112841;28;20419;-60
2023/03/03 07:12:05;;;;;;;0.83;0.83;;;;;;;8.10;100.00;95290.53;5112936;28;20474;-62
2023/03/03 07:14:42;;;;;;;6.17;1.00;;;;;;;8.32;100.00;95301.00;5112808;28;20452;-60
2023/03/03 07:17:15;;;;;;;1.73;0.77;;;;;;;8.21;100.00;95304.59;5112270;28;20431;-60
2023/03/03 07:19:43;;;;;;;3.60;1.13;;;;;;;8.28;100.00;95299.91;5112282;28;20438;-60
2023/03/03 07:22:16;;;;;;;0.77;0.77;;;;;;;8.08;100.00;95213.44;5112682;28;20459;-61
2023/03/03 07:24:46;;;;;;;0.77;0.60;;;;;;;8.46;100.00;95286.28;5112507;28;20453;-59
2023/03/03 07:27:22;;;;;;;4.00;0.87;;;;;;;8.34;100.00;95277.78;5112375;28;20458;-59
2023/03/03 07:29:55;;;;;;;0.40;0.40;;;;;;;8.78;100.00;95284.31;5112370;28;20427;-59
2023/03/03 07:32:27;;;;;;;1.37;0.70;;;;;;;8.30;100.00;95219.38;5112415;28;20918;-60
2023/03/03 07:34:56;;;;;;;1.50;1.20;;;;;;;8.71;100.00;95290.88;5112080;28;20429;-60
2023/03/03 07:37:35;;;;;;;1.33;1.23;;;;;;;8.60;100.00;95281.34;5112248;28;20927;-60
2023/03/03 07:40:25;;;;;;;0.70;0.70;;;;;;;8.53;100.00;95283.41;5111877;28;20915;-59
2023/03/03 07:42:53;;;;;;;0.73;0.73;;;;;;;8.31;100.00;95146.25;5111754;28;20497;-59
2023/03/03 07:45:27;;;;;;;0.60;0.40;;;;;;;8.48;100.00;95167.16;5112160;28;20438;-59
2023/03/03 07:48:08;;;;;;;0.80;0.80;;;;;;;8.95;100.00;95263.75;5112022;28;20818;-59
2023/03/03 07:50:36;;;;;;;0.50;0.40;;;;;;;9.06;100.00;95269.88;5111876;28;20927;-59
2023/03/03 07:53:15;;;;;;;1.57;1.57;;;;;;;9.73;100.00;95256.50;5111238;28;20591;-59
2023/03/03 07:55:44;;;;;;;0.77;0.77;;;;;;;9.66;100.00;95226.84;5111959;28;20417;-58
2023/03/03 07:58:22;;;;;;;0.50;0.40;;;;;;;10.11;100.00;95266.53;5111997;28;20492;-58
2023/03/03 08:01:26;;;;;;;0.87;0.40;;;;;;;9.90;100.00;95270.25;5111072;28;20533;-58
2023/03/03 08:03:56;;;;;;;0.60;0.60;;;;;;;9.88;100.00;95264.44;5111494;28;20436;-58
2023/03/03 08:06:35;;;;;;;0.30;0.30;;;;;;;9.90;100.00;95254.34;5111228;28;20485;-58
2023/03/03 08:09:27;;;;;;;0.73;0.60;;;;;;;10.28;100.00;95249.56;5111394;28;20424;-58
2023/03/03 08:11:59;;;;;;;0.40;0.30;;;;;;;9.88;100.00;95182.38;5111568;28;20438;-58
2023/03/03 08:14:30;;;;;;;0.50;0.47;;;;;;;10.14;100.00;95265.22;5111577;28;20450;-58
2023/03/03 08:16:59;;;;;;;0.50;0.50;;;;;;;10.07;100.00;95209.03;5111619;28;20525;-58
2023/03/03 08:19:31;;;;;;;0.40;0.40;;;;;;;9.72;100.00;95209.09;5111437;28;20828;-58
2023/03/03 08:22:03;;;;;;;1.00;1.00;;;;;;;8.90;100.00;95049.66;5071192;28;20441;-58
2023/03/03 08:24:33;;;;;;;0.70;0.70;;;;;;;10.37;100.00;95250.63;5071110;28;20845;-58
2023/03/03 08:27:04;;;;;;;0.53;0.50;;;;;;;10.16;100.00;95255.94;5070936;28;20429;-58
2023/03/03 08:29:32;;;;;;;0.30;0.20;;;;;;;9.55;100.00;95164.41;5070976;28;20424;-58
2023/03/03 08:32:01;;;;;;;0.60;0.60;;;;;;;10.14;100.00;95254.63;5070822;28;20525;-59
2023/03/03 08:34:30;;;;;;;0.40;0.40;;;;;;;10.34;100.00;95248.50;5074883;28;20473;-59
2023/03/03 08:36:59;;;;;;;0.73;0.73;;;;;;;10.44;100.00;95245.81;5075123;28;20864;-59
2023/03/03 08:39:27;;;;;;;0.77;0.77;;;;;;;10.55;100.00;95219.00;5075339;28;20414;-59
2023/03/03 08:41:55;;;;;;;0.43;0.43;;;;;;;10.94;100.00;95236.88;5075175;28;20429;-59
2023/03/03 08:44:24;;;;;;;0.40;0.40;;;;;;;10.83;100.00;95230.81;5075474;28;20470;-59
2023/03/03 08:46:52;;;;;;;0.50;0.50;;;;;;;11.15;100.00;95244.47;5075011;28;20436;-59
2023/03/03 08:49:21;;;;;;;0.30;0.20;;;;;;;11.24;100.00;95237.50;5075413;28;20439;-60
2023/03/03 08:51:51;;;;;;;0.37;0.30;;;;;;;11.62;98.85;95237.75;5074946;28;20475;-60
2023/03/03 08:54:20;;;;;;;0.60;0.60;;;;;;;11.30;99.21;95223.16;5074315;28;20485;-60
2023/03/03 08:56:48;;;;;;;0.40;0.30;;;;;;;10.88;98.49;95243.28;5075096;28;20432;-60
2023/03/03 08:59:16;;;;;;;0.83;0.70;;;;;;;11.11;99.71;95238.09;5074633;28;20991;-60
2023/03/03 09:01:44;;;;;;;0.30;0.20;;;;;;;11.02;97.81;95238.94;5074744;28;20909;-60
2023/03/03 09:04:13;;;;;;;0.40;0.40;;;;;;;11.28;94.04;95241.19;5074883;28;20440;-60
2023/03/03 09:06:41;;;;;;;1.50;1.50;;;;;;;11.64;96.68;95240.97;5074717;28;20437;-61
2023/03/03 09:09:11;;;;;;;0.40;0.30;;;;;;;11.55;94.87;95245.25;5074560;28;20917;-60
2023/03/03 09:11:39;;;;;;;0.47;0.43;;;;;;;11.15;98.68;95241.81;5074574;28;20441;-60
2023/03/03 09:14:11;;;;;;;2.10;0.90;;;;;;;11.08;100.00;95243.94;5074399;28;20477;-60
2023/03/03 09:16:44;;;;;;;1.37;1.37;;;;;;;11.06;100.00;95237.31;5074573;28;20437;-60
2023/03/03 09:19:23;;;;;;;2.60;0.40;;;;;;;11.48;97.33;95238.38;5074190;28;20939;-59
2023/03/03 09:21:53;;;;;;;0.70;0.70;;;;;;;11.72;94.32;95232.41;5113551;28;20491;-59
2023/03/03 09:24:27;;;;;;;0.80;0.50;;;;;;;11.67;90.77;95217.28;5114740;28;20773;-60
2023/03/03 09:26:57;;;;;;;3.10;0.77;;;;;;;11.62;95.20;95238.56;5114185;28;20431;-60
2023/03/03 09:29:27;;;;;;;2.27;2.17;;;;;;;11.09;94.89;95184.53;5114589;28;20463;-61
2023/03/03 09:31:57;;;;;;;0.73;0.40;;;;;;;11.27;95.28;95241.47;5114768;28;20420;-60
2023/03/03 09:34:38;;;;;;;0.40;0.30;;;;;;;11.49;97.03;95226.72;5114754;28;20467;-60
2023/03/03 09:37:18;;;;;;;0.40;0.40;;;;;;;11.78;93.37;95236.63;5115066;28;20429;-60
2023/03/03 09:39:51;;;;;;;0.40;0.30;;;;;;;12.04;90.58;95230.78;5114884;28;20442;-59
2023/03/03 09:42:37;;;;;;;0.50;0.50;;;;;;;12.14;86.29;95182.09;5114760;28;21003;-60
2023/03/03 09:45:34;;;;;;;0.40;0.33;;;;;;;12.63;84.62;95235.78;5114218;28;20804;-60
2023/03/03 09:48:29;;;;;;;1.17;1.10;;;;;;;12.70;83.82;95233.56;5094391;28;20839;-60
2023/03/03 09:51:10;;;;;;;0.43;0.40;;;;;;;12.48;83.69;95240.47;5093959;28;21021;-60
2023/03/03 09:53:58;;;;;;;0.50;0.37;;;;;;;12.13;87.35;95235.50;5094001;28;20464;-59
2023/03/03 09:56:34;;;;;;;0.40;0.40;;;;;;;11.89;89.57;95206.25;5093642;28;20431;-60
2023/03/03 09:59:15;;;;;;;1.63;1.53;;;;;;;11.51;87.01;95236.28;5093811;28;20523;-59
2023/03/03 10:01:54;;;;;;;2.87;0.73;;;;;;;11.08;90.06;95175.00;5094185;28;20413;-58
2023/03/03 10:04:47;;;;;;;3.70;0.67;;;;;;;11.77;88.84;95250.94;5094721;28;20474;-58
2023/03/03 10:07:27;;;;;;;0.90;0.77;;;;;;;12.10;87.81;95239.50;5113767;28;20506;-58
2023/03/03 10:10:14;;;;;;;0.63;0.43;;;;;;;11.85;89.23;95202.56;5113853;28;20442;-59
2023/03/03 10:12:54;;;;;;;2.10;0.60;;;;;;;11.74;89.55;95233.72;5113798;28;20769;-59
2023/03/03 10:15:34;;;;;;;0.47;0.47;;;;;;;12.18;89.55;95230.13;5113562;28;20558;-59
2023/03/03 10:18:10;;;;;;;0.40;0.30;;;;;;;12.41;85.74;95230.19;5113529;28;20996;-59
2023/03/03 10:20:47;;;;;;;0.93;0.93;;;;;;;11.08;89.42;95228.03;5112817;28;21007;-59
2023/03/03 10:23:22;;;;;;;0.70;0.70;;;;;;;11.63;92.10;95229.53;5112949;28;20862;-59
2023/03/03 10:26:00;;;;;;;2.57;0.50;;;;;;;11.72;91.05;95224.44;5113807;28;20458;-59
2023/03/03 10:29:04;;;;;;;0.57;0.57;;;;;;;11.62;92.30;95232.44;5113046;28;20504;-59
2023/03/03 10:31:45;;;;;;;0.30;0.30;;;;;;;11.64;91.87;95225.03;5113161;28;20874;-59
2023/03/03 10:34:31;;;;;;;1.13;0.30;;;;;;;10.90;97.02;95172.22;5113444;28;20520;-59
2023/03/03 10:37:06;;;;;;;0.40;0.40;;;;;;;11.52;94.92;95168.84;5113535;28;20432;-60
2023/03/03 10:39:58;;;;;;;0.80;0.80;;;;;;;11.68;94.63;95210.13;5113521;28;20439;-60
2023/03/03 10:42:51;;;;;;;2.07;1.97;;;;;;;11.26;93.45;95216.00;5113055;28;20444;-60
2023/03/03 10:45:49;;;;;;;5.60;1.27;;;;;;;11.48;90.47;95211.06;5113679;28;20531;-60
2023/03/03 10:48:40;;;;;;;0.67;0.67;;;;;;;11.38;90.23;95185.38;5111730;28;20462;-60
2023/03/03 10:51:21;;;;;;;0.57;0.50;;;;;;;11.87;87.17;95205.72;5113190;28;20432;-59
2023/03/03 10:54:02;;;;;;;3.20;1.00;;;;;;;11.80;84.36;95133.56;5113305;28;20573;-59
2023/03/03 10:56:46;;;;;;;0.40;0.40;;;;;;;12.74;81.74;95185.91;5112192;28;20424;-60
2023/03/03 10:59:37;;;;;;;1.27;0.90;;;;;;;12.79;79.92;95180.53;5113509;28;20458;-60
2023/03/03 11:02:15;;;;;;;1.20;0.60;;;;;;;12.75;81.86;95193.59;5113438;28;20424;-60
2023/03/03 11:05:01;;;;;;;1.33;1.23;;;;;;;12.23;80.49;95191.03;5113345;28;20538;-60
2023/03/03 11:07:35;;;;;;;0.97;0.93;;;;;;;12.57;79.25;95188.28;5113088;28;20489;-60
2023/03/03 11:10:14;;;;;;;1.47;0.30;;;;;;;13.17;76.36;95178.72;5112997;28;20522;-61
2023/03/03 11:12:56;;;;;;;0.60;0.60;;;;;;;13.49;77.00;95181.41;5112909;28;20447;-61
2023/03/03 11:15:35;;;;;;;0.30;0.30;;;;;;;13.49;72.52;95181.41;5112790;28;20472;-60
2023/03/03 11:18:16;;;;;;;2.00;0.50;;;;;;;13.75;71.42;95149.84;5113389;28;20419;-60
2023/03/03 11:20:56;;;;;;;0.40;0.40;;;;;;;13.79;70.07;95158.81;5112964;28;20994;-60
2023/03/03 11:23:47;;;;;;;0.30;0.30;;;;;;;14.15;69.08;95169.63;5113328;28;20849;-60
2023/03/03 11:26:27;;;;;;;4.83;0.60;;;;;;;13.76;70.31;95162.09;5112778;28;20432;-60
2023/03/03 11:29:13;;;;;;;0.50;0.40;;;;;;;13.42;71.14;95130.41;5112905;28;20452;-60
2023/03/03 11:31:48;;;;;;;1.53;0.93;;;;;;;14.08;71.87;95166.56;5112409;28;21023;-60
2023/03/03 11:34:30;;;;;;;2.60;2.40;;;;;;;14.34;70.75;95170.38;5112755;28;20463;-60
2023/03/03 11:37:06;;;;;;;3.60;0.40;;;;;;;13.93;69.93;95147.13;5112416;28;20831;-60
2023/03/03 11:39:35;;;;;;;2.23;0.40;;;;;;;13.43;72.11;95059.34;5112421;28;20936;-60
2023/03/03 11:42:15;;;;;;;0.87;0.87;;;;;;;14.30;70.96;95146.16;5112182;28;20522;-59
2023/03/03 11:44:47;;;;;;;0.60;0.50;;;;;;;13.49;70.47;95140.69;5111625;28;21200;-59
2023/03/03 11:47:23;;;;;;;1.17;0.93;;;;;;;12.97;74.33;95147.03;5112545;28;20424;-59
2023/03/03 11:49:57;;;;;;;2.00;1.03;;;;;;;12.46;75.15;95137.09;5112163;28;20514;-60
2023/03/03 11:52:34;;;;;;;1.13;1.13;;;;;;;12.80;73.16;95146.75;5112223;28;20434;-61
2023/03/03 11:55:08;;;;;;;0.40;0.37;;;;;;;12.90;72.97;95149.28;5112110;28;20558;-61
2023/03/03 11:57:42;;;;;;;0.57;0.57;;;;;;;13.36;73.08;95127.03;5112379;28;20449;-60